createdAt,value
2023-04-29T00:03:51.701Z,10.05
2023-04-29T00:08:14.226Z,9.97
2023-04-29T00:12:36.809Z,9.85
2023-04-29T00:16:49.325Z,9.77
2023-04-29T00:21:01.789Z,9.80
2023-04-29T00:25:24.511Z,9.78
2023-04-29T00:29:37.673Z,9.78
2023-04-29T00:33:50.178Z,9.76
2023-04-29T00:38:02.662Z,9.67
2023-04-29T00:42:15.206Z,9.66
2023-04-29T00:46:28.283Z,9.68
2023-04-29T00:50:40.816Z,9.74
2023-04-29T00:54:53.706Z,9.64
2023-04-29T00:59:06.851Z,9.76
2023-04-29T01:03:20.468Z,9.78
2023-04-29T01:08:12.573Z,9.73
2023-04-29T01:12:42.321Z,9.74
2023-04-29T01:17:11.705Z,9.77
2023-04-29T01:21:26.529Z,9.80
2023-04-29T01:25:39.949Z,10.02
2023-04-29T01:30:03.619Z,10.14
2023-04-29T01:34:24.342Z,10.05
2023-04-29T01:38:48.668Z,10.40
2023-04-29T01:43:06.800Z,10.65
2023-04-29T01:47:19.593Z,10.85
2023-04-29T01:51:33.064Z,10.77
2023-04-29T01:55:45.612Z,10.83
2023-04-29T01:59:58.188Z,10.89
2023-04-29T02:04:16.799Z,10.85
2023-04-29T02:08:29.337Z,10.92
2023-04-29T02:12:41.784Z,10.81
2023-04-29T02:16:54.245Z,10.89
2023-04-29T02:21:07.109Z,10.93
2023-04-29T02:25:20.161Z,11.02
2023-04-29T02:29:35.382Z,10.91
2023-04-29T02:33:47.899Z,10.75
2023-04-29T02:38:00.354Z,10.81
2023-04-29T02:42:12.822Z,10.72
2023-04-29T02:46:25.623Z,10.78
2023-04-29T02:50:38.212Z,10.75
2023-04-29T02:54:50.685Z,10.66
2023-04-29T02:59:03.109Z,10.63
2023-04-29T03:03:15.661Z,10.69
2023-04-29T03:07:29.454Z,10.81
2023-04-29T03:11:42.224Z,10.89
2023-04-29T03:15:54.805Z,10.91
2023-04-29T03:20:17.355Z,10.78
2023-04-29T03:24:29.857Z,10.71
2023-04-29T03:28:43.261Z,10.76
2023-04-29T03:32:55.754Z,10.77
2023-04-29T03:37:08.220Z,10.76
2023-04-29T03:41:20.716Z,10.53
2023-04-29T03:45:33.803Z,10.73
2023-04-29T03:49:56.226Z,10.81
2023-04-29T03:54:09.872Z,10.59
2023-04-29T03:58:24.412Z,10.63
2023-04-29T04:02:37.003Z,10.70
2023-04-29T04:06:59.581Z,10.60
2023-04-29T04:11:21.651Z,10.66
2023-04-29T04:15:34.145Z,10.52
2023-04-29T04:19:46.617Z,10.49
2023-04-29T04:23:59.158Z,10.51
2023-04-29T04:28:11.868Z,10.70
2023-04-29T04:32:24.653Z,10.67
2023-04-29T04:36:37.775Z,10.74
2023-04-29T04:40:50.275Z,10.85
2023-04-29T04:45:13.014Z,10.95
2023-04-29T04:49:28.237Z,11.23
2023-04-29T04:53:41.804Z,11.31
2023-04-29T04:57:54.237Z,11.30
2023-04-29T05:02:06.792Z,11.45
2023-04-29T05:06:29.553Z,11.54
2023-04-29T05:10:42.304Z,11.61
2023-04-29T05:14:54.781Z,11.77
2023-04-29T05:19:07.291Z,11.88
2023-04-29T05:23:29.832Z,11.97
2023-04-29T05:27:42.664Z,12.08
2023-04-29T05:31:55.134Z,12.13
2023-04-29T05:36:08.105Z,12.15
2023-04-29T05:40:20.555Z,12.41
2023-04-29T05:44:33.839Z,12.59
2023-04-29T05:48:46.895Z,12.76
2023-04-29T05:52:59.365Z,12.61
2023-04-29T05:57:11.984Z,12.59
2023-04-29T06:01:24.440Z,12.65
2023-04-29T06:05:37.511Z,12.87
2023-04-29T06:09:51.826Z,12.89
2023-04-29T06:14:04.738Z,12.78
2023-04-29T06:18:17.244Z,12.98
2023-04-29T06:22:39.699Z,13.11
2023-04-29T06:26:57.841Z,13.16
2023-04-29T06:31:10.356Z,12.99
2023-04-29T06:35:23.892Z,13.29
2023-04-29T06:39:36.362Z,13.64
2023-04-29T06:43:50.102Z,13.59
2023-04-29T06:48:02.602Z,13.63
2023-04-29T06:52:15.686Z,13.71
2023-04-29T06:56:28.184Z,13.80
2023-04-29T07:00:40.671Z,14.25
2023-04-29T07:04:53.337Z,14.56
2023-04-29T07:09:05.904Z,14.38
2023-04-29T07:13:18.355Z,14.36
2023-04-29T07:17:32.250Z,14.63
2023-04-29T07:21:44.709Z,14.96
2023-04-29T07:25:57.159Z,14.41
2023-04-29T07:30:10.030Z,14.71
2023-04-29T07:34:28.131Z,15.03
2023-04-29T07:38:40.985Z,15.32
2023-04-29T07:42:53.544Z,16.19
2023-04-29T07:47:06.461Z,16.20
2023-04-29T07:51:18.901Z,16.17
2023-04-29T07:55:31.898Z,15.83
2023-04-29T07:59:44.321Z,15.68
2023-04-29T08:04:07.247Z,15.73
2023-04-29T08:08:19.974Z,15.80
2023-04-29T08:12:32.614Z,17.20
2023-04-29T08:16:45.127Z,17.42
2023-04-29T08:20:57.656Z,17.72
2023-04-29T08:25:10.727Z,17.01
2023-04-29T08:29:23.234Z,17.16
2023-04-29T08:33:36.096Z,17.15
2023-04-29T08:37:49.002Z,16.97
2023-04-29T08:42:09.627Z,16.97
2023-04-29T08:46:22.466Z,16.55
2023-04-29T08:50:45.154Z,16.85
2023-04-29T08:54:58.548Z,18.02
2023-04-29T08:59:11.613Z,17.38
2023-04-29T09:03:32.808Z,16.69
2023-04-29T09:07:46.918Z,16.12
2023-04-29T09:11:59.870Z,16.73
2023-04-29T09:16:13.632Z,16.75
2023-04-29T09:20:36.193Z,15.73
2023-04-29T09:24:49.717Z,16.59
2023-04-29T09:29:19.105Z,18.52
2023-04-29T09:33:32.204Z,20.27
2023-04-29T09:37:44.653Z,19.09
2023-04-29T09:41:57.069Z,17.45
2023-04-29T09:46:13.832Z,19.02
2023-04-29T09:50:26.630Z,17.38
2023-04-29T09:54:41.576Z,16.87
2023-04-29T09:58:53.985Z,15.71
2023-04-29T10:03:17.117Z,15.03
2023-04-29T10:07:30.245Z,14.75
2023-04-29T10:11:47.128Z,16.04
2023-04-29T10:16:30.392Z,17.40
2023-04-29T10:20:48.267Z,18.00
2023-04-29T10:25:02.966Z,17.76
2023-04-29T10:29:18.325Z,18.51
2023-04-29T10:33:37.140Z,19.77
2023-04-29T10:37:50.325Z,20.43
2023-04-29T10:42:06.616Z,20.12
2023-04-29T10:46:29.317Z,20.22
2023-04-29T10:50:48.098Z,18.84
2023-04-29T10:55:04.963Z,17.62
2023-04-29T10:59:22.506Z,19.27
2023-04-29T11:03:59.491Z,20.27
2023-04-29T11:08:27.324Z,18.84
2023-04-29T11:12:39.819Z,18.88
2023-04-29T11:17:02.414Z,17.68
2023-04-29T11:21:15.360Z,19.53
2023-04-29T11:25:29.210Z,18.89
2023-04-29T11:29:41.910Z,18.49
2023-04-29T11:33:54.412Z,19.49
2023-04-29T11:38:07.404Z,19.08
2023-04-29T11:42:24.214Z,18.68
2023-04-29T11:46:37.047Z,19.66
2023-04-29T11:50:55.722Z,19.07
2023-04-29T11:55:12.639Z,19.68
2023-04-29T11:59:25.458Z,19.97
2023-04-29T12:03:38.411Z,19.82
2023-04-29T12:07:51.989Z,18.93
2023-04-29T12:12:05.902Z,18.33
2023-04-29T12:16:20.002Z,18.50
2023-04-29T12:20:33.268Z,19.08
2023-04-29T12:24:55.224Z,17.75
2023-04-29T12:29:11.982Z,19.43
2023-04-29T12:33:30.194Z,19.20
2023-04-29T12:37:42.729Z,19.92
2023-04-29T12:42:02.664Z,21.19
2023-04-29T12:46:15.597Z,20.72
2023-04-29T12:50:39.410Z,20.55
2023-04-29T12:54:52.419Z,20.06
2023-04-29T12:59:13.453Z,19.91
2023-04-29T13:03:26.148Z,21.24
2023-04-29T13:07:39.700Z,21.29
2023-04-29T13:11:52.589Z,19.43
2023-04-29T13:16:05.532Z,20.14
2023-04-29T13:20:18.301Z,20.07
2023-04-29T13:24:31.045Z,20.89
2023-04-29T13:28:44.332Z,20.30
2023-04-29T13:33:03.377Z,19.29
2023-04-29T13:37:22.556Z,18.05
2023-04-29T13:41:35.830Z,19.59
2023-04-29T13:45:48.975Z,20.39
2023-04-29T14:03:08.388Z,18.31
2023-04-29T14:07:20.864Z,19.20
2023-04-29T14:11:37.986Z,19.41
2023-04-29T14:15:50.715Z,20.14
2023-04-29T14:20:04.848Z,19.93
2023-04-29T14:24:17.472Z,19.89
2023-04-29T14:28:30.455Z,21.08
2023-04-29T14:32:47.277Z,20.20
2023-04-29T14:37:00.132Z,21.24
2023-04-29T14:41:12.826Z,19.58
2023-04-29T14:45:25.355Z,20.03
2023-04-29T14:49:37.791Z,21.25
2023-04-29T14:53:50.297Z,20.98
2023-04-29T14:58:05.715Z,19.94
2023-04-29T15:02:28.275Z,20.19
2023-04-29T15:06:51.205Z,18.46
2023-04-29T15:11:03.980Z,18.45
2023-04-29T15:15:26.772Z,20.49
2023-04-29T15:19:39.235Z,19.74
2023-04-29T15:23:51.742Z,20.13
2023-04-29T15:28:05.377Z,20.23
2023-04-29T15:32:17.899Z,19.60
2023-04-29T15:36:33.974Z,18.52
2023-04-29T15:40:47.260Z,19.29
2023-04-29T15:44:59.745Z,17.89
2023-04-29T15:49:13.157Z,18.01
2023-04-29T15:53:25.615Z,18.99
2023-04-29T15:57:42.672Z,19.14
2023-04-29T16:01:55.088Z,18.93
2023-04-29T16:06:07.855Z,19.60
2023-04-29T16:10:20.528Z,21.11
2023-04-29T16:14:32.972Z,19.31
2023-04-29T16:18:45.399Z,19.13
2023-04-29T16:22:57.826Z,18.23
2023-04-29T16:27:11.291Z,17.99
2023-04-29T16:31:24.432Z,17.89
2023-04-29T16:35:37.665Z,17.58
2023-04-29T16:39:57.558Z,17.71
2023-04-29T16:44:10.142Z,17.71
2023-04-29T16:48:32.789Z,16.94
2023-04-29T16:52:46.925Z,17.03
2023-04-29T16:56:59.387Z,16.40
2023-04-29T17:01:12.127Z,15.70
2023-04-29T17:05:26.690Z,15.83
2023-04-29T17:09:39.137Z,16.15
2023-04-29T17:14:01.579Z,15.88
2023-04-29T17:18:14.254Z,15.66
2023-04-29T17:22:27.183Z,15.07
2023-04-29T17:26:39.664Z,15.11
2023-04-29T17:30:54.301Z,15.16
2023-04-29T17:35:09.590Z,14.90
2023-04-29T17:39:22.048Z,14.69
2023-04-29T17:43:39.553Z,14.29
2023-04-29T17:47:52.139Z,14.36
2023-04-29T17:52:05.580Z,14.21
2023-04-29T17:56:18.271Z,14.18
2023-04-29T18:00:30.930Z,14.10
2023-04-29T18:04:43.363Z,13.96
2023-04-29T18:08:55.907Z,13.91
2023-04-29T18:13:08.357Z,13.88
2023-04-29T18:17:20.935Z,13.80
2023-04-29T18:21:33.553Z,13.93
2023-04-29T18:25:46.174Z,13.68
2023-04-29T18:29:58.729Z,13.62
2023-04-29T18:34:11.388Z,13.36
2023-04-29T18:38:24.017Z,13.29
2023-04-29T18:42:38.289Z,13.17
2023-04-29T18:46:50.777Z,13.20
2023-04-29T18:51:05.090Z,13.15
2023-04-29T18:55:17.849Z,13.06
2023-04-29T18:59:30.440Z,13.07
2023-04-29T19:03:42.894Z,12.89
2023-04-29T19:07:55.990Z,12.95
2023-04-29T19:12:17.544Z,12.90
2023-04-29T19:16:29.991Z,12.82
2023-04-29T19:20:49.594Z,12.71
2023-04-29T19:25:02.105Z,12.72
2023-04-29T19:29:14.695Z,12.61
2023-04-29T19:33:27.284Z,12.45
2023-04-29T19:37:39.770Z,12.56
2023-04-29T19:41:52.273Z,12.43
2023-04-29T19:46:04.786Z,12.35
2023-04-29T19:50:17.363Z,12.33
2023-04-29T19:54:30.046Z,12.40
2023-04-29T19:58:42.700Z,12.40
2023-04-29T20:02:55.343Z,12.42
2023-04-29T20:07:08.076Z,12.38
2023-04-29T20:11:24.716Z,12.22
2023-04-29T20:15:37.236Z,12.22
2023-04-29T20:19:50.318Z,12.14
2023-04-29T20:24:02.881Z,12.14
2023-04-29T20:28:15.446Z,12.10
2023-04-29T20:32:28.166Z,12.15
2023-04-29T20:36:40.840Z,12.07
2023-04-29T20:40:55.157Z,11.98
2023-04-29T20:45:08.690Z,11.94
2023-04-29T20:49:21.206Z,11.95
2023-04-29T20:53:33.880Z,11.86
2023-04-29T20:57:46.446Z,11.81
2023-04-29T21:01:58.979Z,11.76
2023-04-29T21:06:11.583Z,11.75
2023-04-29T21:10:24.431Z,11.74
2023-04-29T21:14:39.438Z,11.68
2023-04-29T21:18:53.485Z,11.62
2023-04-29T21:23:06.038Z,11.48
2023-04-29T21:27:18.608Z,11.34
2023-04-29T21:31:32.047Z,11.17
2023-04-29T21:35:54.611Z,11.04
2023-04-29T21:40:08.248Z,10.93
2023-04-29T21:44:20.742Z,10.65
2023-04-29T21:48:33.337Z,10.66
2023-04-29T21:52:49.663Z,10.48
2023-04-29T21:57:02.500Z,10.38
2023-04-29T22:01:28.204Z,10.22
2023-04-29T22:05:40.728Z,10.09
2023-04-29T22:09:53.473Z,9.95
2023-04-29T22:14:11.130Z,9.87
2023-04-29T22:18:23.770Z,10.05
2023-04-29T22:22:36.474Z,10.07
2023-04-29T22:26:49.578Z,10.07
2023-04-29T22:31:09.896Z,10.02
2023-04-29T22:35:24.027Z,10.15
2023-04-29T22:39:36.515Z,10.08
2023-04-29T22:43:49.045Z,10.29
2023-04-29T22:48:01.598Z,10.40
2023-04-29T22:52:14.307Z,10.49
2023-04-29T22:56:26.987Z,10.56
2023-04-29T23:00:39.461Z,10.47
2023-04-29T23:04:52.594Z,10.37
2023-04-29T23:09:05.087Z,10.41
2023-04-29T23:13:18.399Z,10.42
2023-04-29T23:17:30.931Z,10.23
2023-04-29T23:21:43.405Z,10.43
2023-04-29T23:25:55.830Z,10.38
2023-04-29T23:30:10.011Z,10.45
2023-04-29T23:34:33.241Z,10.46
2023-04-29T23:38:45.729Z,10.52
2023-04-29T23:43:04.888Z,10.49
2023-04-29T23:47:18.744Z,10.52
2023-04-29T23:51:33.033Z,10.64
2023-04-29T23:55:45.453Z,10.47
